Time;durP1;ratioP1;P1;durP2;ratioP2;P2;SDS_P1;SDS_P2;PMS_P1;PMS_P2;Temp;Humidity;BMP_temperature;BMP_pressure;BME280_temperature;BME280_humidity;BME280_pressure;Samples;Min_cycle;Max_cycle;Signal;HPM_P1;HPM_P2
2021/07/21 00:00:26;;;;;;;6.68;4.15;;;16.50;94.00;;;;;;5045301;28;20036;-81
2021/07/21 00:02:53;;;;;;;5.15;3.85;;;16.50;94.30;;;;;;5041929;28;20064;-81
2021/07/21 00:05:21;;;;;;;5.82;3.97;;;16.50;94.30;;;;;;5044133;28;20041;-77
2021/07/21 00:07:48;;;;;;;6.15;3.53;;;16.50;94.50;;;;;;5045293;28;20455;-78
2021/07/21 00:10:17;;;;;;;6.65;4.38;;;16.40;94.70;;;;;;5011008;28;20056;-77
2021/07/21 00:15:34;;;;;;;6.40;4.50;;;16.40;95.00;;;;;;5042797;28;20037;-78
2021/07/21 00:18:14;;;;;;;7.22;4.40;;;16.30;95.20;;;;;;5045913;28;20053;-77
2021/07/21 00:20:41;;;;;;;7.03;4.15;;;16.30;95.40;;;;;;5044295;28;20529;-77
2021/07/21 00:23:07;;;;;;;6.10;4.65;;;16.30;95.60;;;;;;5023545;28;20057;-78
2021/07/21 00:25:34;;;;;;;7.72;4.78;;;16.20;95.70;;;;;;5017057;28;20053;-78
2021/07/21 00:28:01;;;;;;;6.35;3.97;;;16.20;95.90;;;;;;5027589;28;20041;-78
2021/07/21 00:30:28;;;;;;;6.93;4.30;;;16.20;96.00;;;;;;5024959;28;20045;-78
2021/07/21 00:32:55;;;;;;;6.32;4.47;;;16.10;96.10;;;;;;5040386;28;20032;-78
2021/07/21 00:35:22;;;;;;;6.95;4.45;;;16.00;96.30;;;;;;5042440;28;20056;-77
2021/07/21 00:37:48;;;;;;;6.65;4.18;;;16.00;96.50;;;;;;5025909;28;20596;-78
2021/07/21 00:40:17;;;;;;;6.97;4.80;;;15.90;96.60;;;;;;5027432;28;20051;-77
2021/07/21 00:42:45;;;;;;;7.88;4.82;;;15.80;96.90;;;;;;5010018;28;20083;-78
2021/07/21 00:45:12;;;;;;;6.13;4.40;;;15.80;97.00;;;;;;5015062;28;20065;-77
2021/07/21 00:47:39;;;;;;;6.43;4.30;;;15.80;97.10;;;;;;5007009;28;20052;-78
2021/07/21 00:50:07;;;;;;;6.97;4.53;;;15.70;97.30;;;;;;5043971;28;20033;-78
2021/07/21 00:52:41;;;;;;;6.72;4.82;;;15.70;97.40;;;;;;5006911;28;20057;-78
2021/07/21 00:55:18;;;;;;;7.53;4.32;;;15.70;97.60;;;;;;5010237;28;20051;-78
2021/07/21 00:57:50;;;;;;;6.93;4.38;;;15.70;97.60;;;;;;5026183;28;20037;-78
2021/07/21 01:00:19;;;;;;;6.80;4.55;;;15.70;97.60;;;;;;5043937;28;20048;-78
2021/07/21 01:02:53;;;;;;;6.43;4.32;;;15.70;97.70;;;;;;5005772;28;20042;-78
2021/07/21 01:05:27;;;;;;;5.85;3.97;;;15.70;97.70;;;;;;5010126;28;20048;-77
2021/07/21 01:07:55;;;;;;;6.35;4.25;;;15.70;97.90;;;;;;5027077;28;20045;-78
2021/07/21 01:10:26;;;;;;;5.82;4.38;;;15.60;97.90;;;;;;5043866;28;20037;-78
2021/07/21 01:13:06;;;;;;;7.53;4.68;;;15.60;97.90;;;;;;5025120;28;20101;-78
2021/07/21 01:15:53;;;;;;;6.25;4.68;;;15.60;97.90;;;;;;5025907;28;20029;-78
2021/07/21 01:19:12;;;;;;;6.05;4.00;;;15.60;98.10;;;;;;5041679;28;20380;-78
2021/07/21 01:22:13;;;;;;;5.55;4.32;;;15.60;98.10;;;;;;5013017;28;20068;-78
2021/07/21 01:24:52;;;;;;;;;;;15.50;97.90;;;;;;5042662;28;20040;-78
2021/07/21 01:27:41;;;;;;;5.20;3.20;;;15.50;97.70;;;;;;5009206;28;20267;-78
2021/07/21 01:30:16;;;;;;;5.90;4.07;;;15.50;97.80;;;;;;5042208;28;20037;-77
2021/07/21 01:33:20;;;;;;;5.65;4.05;;;15.50;97.80;;;;;;5042697;28;20400;-78
2021/07/21 01:36:03;;;;;;;6.75;3.67;;;15.50;97.80;;;;;;5043022;28;20036;-78
2021/07/21 01:38:42;;;;;;;5.10;3.78;;;15.40;97.90;;;;;;5006696;28;20488;-78
2021/07/21 01:41:15;;;;;;;7.45;3.95;;;15.40;97.90;;;;;;5024016;28;20049;-78
2021/07/21 01:43:48;;;;;;;8.32;4.13;;;15.40;97.90;;;;;;5025436;28;20049;-78
2021/07/21 01:46:20;;;;;;;7.45;4.68;;;15.40;97.90;;;;;;5005489;28;20056;-78
2021/07/21 01:48:48;;;;;;;7.07;4.22;;;15.40;98.00;;;;;;5009632;28;20083;-78
2021/07/21 01:51:18;;;;;;;5.97;3.92;;;15.40;97.90;;;;;;5011016;28;20064;-78
2021/07/21 01:53:45;;;;;;;6.55;3.92;;;15.40;97.90;;;;;;5041279;28;20037;-78
2021/07/21 01:56:20;;;;;;;8.70;4.15;;;15.40;97.90;;;;;;5027731;28;20079;-78
2021/07/21 01:58:51;;;;;;;;;;;15.40;97.80;;;;;;5013554;28;20052;-78
2021/07/21 02:01:39;;;;;;;5.20;3.60;;;15.40;97.80;;;;;;5041755;28;19913;-78
2021/07/21 02:04:15;;;;;;;6.60;4.13;;;15.40;97.70;;;;;;5030344;28;20055;-78
2021/07/21 02:06:43;;;;;;;5.03;3.88;;;15.30;97.80;;;;;;5044801;28;20045;-78
2021/07/21 02:09:10;;;;;;;6.68;4.28;;;15.30;97.80;;;;;;5015493;28;20041;-78
2021/07/21 02:11:40;;;;;;;7.38;4.47;;;15.30;97.80;;;;;;5025140;28;20038;-78
2021/07/21 02:14:10;;;;;;;6.32;4.18;;;15.30;97.90;;;;;;5030195;28;20493;-78
2021/07/21 02:16:49;;;;;;;8.10;3.78;;;15.30;98.00;;;;;;5029767;28;20029;-78
2021/07/21 02:19:24;;;;;;;6.57;4.50;;;15.30;98.10;;;;;;4998818;28;20049;-77
2021/07/21 02:22:05;;;;;;;7.97;4.65;;;15.30;98.20;;;;;;5030012;28;20511;-78
2021/07/21 02:24:38;;;;;;;7.05;4.30;;;15.30;98.30;;;;;;5023478;28;20042;-78
2021/07/21 02:27:22;;;;;;;5.60;4.20;;;15.30;98.40;;;;;;5046823;28;20530;-78
2021/07/21 02:29:52;;;;;;;6.18;4.25;;;15.30;98.40;;;;;;4997643;28;20512;-78
2021/07/21 02:32:30;;;;;;;4.90;3.55;;;15.30;98.50;;;;;;5029241;28;20064;-78
2021/07/21 02:35:01;;;;;;;6.70;4.20;;;15.30;98.60;;;;;;5046142;28;20052;-78
2021/07/21 02:37:30;;;;;;;5.82;3.92;;;15.20;98.50;;;;;;5025564;28;20037;-78
2021/07/21 02:39:56;;;;;;;6.95;4.47;;;15.20;98.60;;;;;;5046825;28;20049;-78
2021/07/21 02:42:23;;;;;;;5.85;4.53;;;15.20;98.70;;;;;;5028605;28;20045;-78
2021/07/21 02:44:52;;;;;;;7.63;4.28;;;15.20;98.80;;;;;;5010963;28;20409;-78
2021/07/21 02:47:20;;;;;;;8.43;5.40;;;15.20;98.90;;;;;;5012032;28;20050;-78
2021/07/21 02:49:52;;;;;;;6.43;4.43;;;15.20;99.10;;;;;;5038047;28;20029;-78
2021/07/21 02:52:31;;;;;;;6.97;4.75;;;15.20;99.20;;;;;;5045537;28;20033;-78
2021/07/21 02:55:13;;;;;;;7.15;4.85;;;15.20;99.30;;;;;;5029120;28;20052;-78
2021/07/21 02:58:05;;;;;;;7.32;4.57;;;15.20;99.30;;;;;;5028484;28;20045;-78
2021/07/21 03:00:34;;;;;;;6.47;4.63;;;15.20;99.50;;;;;;5010881;28;20939;-78
2021/07/21 03:03:10;;;;;;;8.57;4.93;;;15.20;99.50;;;;;;5041638;28;20589;-78
2021/07/21 03:05:41;;;;;;;7.45;5.05;;;15.10;99.60;;;;;;5011391;28;20041;-78
2021/07/21 03:08:18;;;;;;;7.88;5.15;;;15.20;99.60;;;;;;5045675;28;20060;-78
2021/07/21 03:10:52;;;;;;;7.03;4.55;;;15.20;99.80;;;;;;5029508;28;20056;-78
2021/07/21 03:13:28;;;;;;;8.45;5.35;;;15.20;99.90;;;;;;5013722;28;20044;-78
2021/07/21 03:15:59;;;;;;;6.78;4.55;;;15.10;99.90;;;;;;5029598;28;20116;-78
2021/07/21 03:18:52;;;;;;;8.38;5.00;;;15.10;99.90;;;;;;5013203;28;20061;-82
2021/07/21 03:21:25;;;;;;;6.70;4.68;;;15.10;99.90;;;;;;5028552;28;20045;-82
2021/07/21 03:24:01;;;;;;;6.95;5.07;;;15.10;99.90;;;;;;5045753;28;20040;-82
2021/07/21 03:26:50;;;;;;;8.45;5.18;;;15.10;99.90;;;;;;5045302;28;20056;-82
2021/07/21 03:29:20;;;;;;;7.25;4.40;;;15.10;99.90;;;;;;5045588;28;20036;-82
2021/07/21 03:31:50;;;;;;;7.57;4.90;;;15.10;99.90;;;;;;5019459;28;20064;-82
2021/07/21 03:34:22;;;;;;;9.10;5.70;;;15.10;99.90;;;;;;5028999;28;20045;-82
2021/07/21 03:36:57;;;;;;;6.47;5.07;;;15.10;99.90;;;;;;5046343;28;20043;-81
2021/07/21 03:39:43;;;;;;;6.97;4.95;;;15.10;99.90;;;;;;5046691;28;20029;-82
2021/07/21 03:42:18;;;;;;;8.45;5.20;;;15.10;99.90;;;;;;4998104;28;20040;-82
2021/07/21 03:44:48;;;;;;;7.15;5.53;;;15.10;99.90;;;;;;4982060;28;20044;-82
2021/07/21 03:47:16;;;;;;;10.32;5.53;;;15.00;99.90;;;;;;5010859;28;20050;-82
2021/07/21 03:49:45;;;;;;;5.93;4.93;;;15.00;99.90;;;;;;4995685;28;20045;-82
2021/07/21 03:52:16;;;;;;;8.20;5.65;;;15.00;99.90;;;;;;5042991;28;20881;-82
2021/07/21 03:55:05;;;;;;;7.65;4.97;;;15.00;99.90;;;;;;5028450;28;20041;-82
2021/07/21 03:57:48;;;;;;;7.15;5.45;;;15.00;99.90;;;;;;5026929;28;20480;-82
2021/07/21 04:00:19;;;;;;;7.03;5.20;;;15.00;99.90;;;;;;5002021;28;20064;-79
2021/07/21 04:03:01;;;;;;;9.55;6.15;;;15.00;99.90;;;;;;5009728;28;20491;-79
2021/07/21 04:05:45;;;;;;;11.18;6.05;;;15.00;99.90;;;;;;5010905;28;20050;-78
2021/07/21 04:08:16;;;;;;;9.32;5.72;;;15.00;99.90;;;;;;5012800;28;20060;-79
2021/07/21 04:10:48;;;;;;;10.55;5.85;;;15.00;99.90;;;;;;5006133;28;20041;-79
2021/07/21 04:13:17;;;;;;;8.75;6.15;;;15.00;99.90;;;;;;5006905;28;20519;-78
2021/07/21 04:16:01;;;;;;;8.82;6.45;;;15.10;99.90;;;;;;5025385;28;20044;-78
2021/07/21 04:18:36;;;;;;;8.40;4.63;;;15.10;99.90;;;;;;5027975;28;20048;-79
2021/07/21 04:21:05;;;;;;;9.07;5.97;;;15.10;99.90;;;;;;5044597;28;20036;-78
2021/07/21 04:23:33;;;;;;;9.60;5.82;;;15.10;99.90;;;;;;5010880;28;20048;-78
2021/07/21 04:26:02;;;;;;;8.98;5.82;;;15.10;99.90;;;;;;5012711;28;20041;-79
2021/07/21 04:28:30;;;;;;;9.65;6.28;;;15.10;99.90;;;;;;5028169;28;20044;-79
2021/07/21 04:31:01;;;;;;;9.77;6.43;;;15.20;99.90;;;;;;5011938;28;20049;-79
2021/07/21 04:33:35;;;;;;;8.88;6.13;;;15.20;99.90;;;;;;4978486;28;20045;-79
2021/07/21 04:36:03;;;;;;;;;;;15.20;99.90;;;;;;5045239;28;20033;-79
2021/07/21 04:38:31;;;;;;;8.13;5.55;;;15.20;99.90;;;;;;5011319;28;20481;-79
2021/07/21 04:41:09;;;;;;;8.52;5.60;;;15.20;99.90;;;;;;5014435;28;20055;-79
2021/07/21 04:43:35;;;;;;;7.45;5.82;;;15.30;99.90;;;;;;5040866;28;20517;-83
2021/07/21 04:46:07;;;;;;;9.82;6.03;;;15.30;99.90;;;;;;5029357;28;20052;-82
2021/07/21 04:48:34;;;;;;;8.88;6.70;;;15.40;99.90;;;;;;5045167;28;20072;-82
2021/07/21 04:51:15;;;;;;;9.23;6.13;;;15.50;99.90;;;;;;5021619;28;20037;-82
2021/07/21 04:53:44;;;;;;;9.77;6.57;;;15.50;99.90;;;;;;5041639;28;20048;-82
2021/07/21 04:56:16;;;;;;;;;;;15.60;99.90;;;;;;5012166;28;20658;-83
2021/07/21 04:58:44;;;;;;;8.75;5.68;;;15.70;99.90;;;;;;5027775;28;19924;-82
2021/07/21 05:01:14;;;;;;;7.60;5.55;;;15.70;99.90;;;;;;4995044;28;20072;-82
2021/07/21 05:03:42;;;;;;;10.20;7.00;;;15.80;99.90;;;;;;4986971;28;20354;-83
2021/07/21 05:06:14;;;;;;;8.60;6.53;;;15.90;99.90;;;;;;5042616;28;20045;-83
2021/07/21 05:08:48;;;;;;;12.88;7.95;;;16.00;99.90;;;;;;5045807;28;20036;-82
2021/07/21 05:11:23;;;;;;;10.43;7.15;;;16.10;99.90;;;;;;5026905;28;20037;-82
2021/07/21 05:13:55;;;;;;;10.40;6.90;;;16.30;99.90;;;;;;4994337;28;20052;-82
2021/07/21 05:16:26;;;;;;;9.13;6.55;;;16.40;99.90;;;;;;4996724;28;20053;-82
2021/07/21 05:18:52;;;;;;;11.73;8.43;;;16.50;99.90;;;;;;5011871;28;20052;-83
2021/07/21 05:21:23;;;;;;;12.10;8.80;;;16.60;99.90;;;;;;5010258;28;20056;-82
2021/07/21 05:23:50;;;;;;;10.38;8.27;;;16.70;99.90;;;;;;5021974;28;20033;-82
2021/07/21 05:26:17;;;;;;;12.10;8.20;;;16.80;99.90;;;;;;5042126;28;20037;-79
2021/07/21 05:28:55;;;;;;;13.63;9.50;;;16.90;99.90;;;;;;4995694;28;20527;-79
2021/07/21 05:31:45;;;;;;;9.85;7.85;;;17.00;99.90;;;;;;5002437;28;20049;-79
2021/07/21 05:34:24;;;;;;;13.13;8.07;;;17.10;99.90;;;;;;5043513;28;20428;-78
2021/07/21 05:36:56;;;;;;;12.07;7.63;;;17.20;99.90;;;;;;5015649;28;20032;-78
2021/07/21 05:39:40;;;;;;;12.63;8.20;;;17.20;99.90;;;;;;5037094;28;20043;-82
2021/07/21 05:42:07;;;;;;;12.27;8.77;;;17.30;99.90;;;;;;5034023;28;20049;-80
2021/07/21 05:44:37;;;;;;;10.63;7.95;;;17.40;99.90;;;;;;5047152;28;20060;-80
2021/07/21 05:47:04;;;;;;;12.77;8.10;;;17.50;99.90;;;;;;5050261;28;20041;-80
2021/07/21 05:49:30;;;;;;;11.88;7.70;;;17.60;99.90;;;;;;5046288;28;20147;-80
2021/07/21 05:52:03;;;;;;;13.63;9.45;;;17.70;99.90;;;;;;5041898;28;20041;-82
2021/07/21 05:54:39;;;;;;;14.57;10.27;;;17.70;99.90;;;;;;5045461;28;20033;-79
2021/07/21 05:57:09;;;;;;;12.50;9.80;;;17.80;99.90;;;;;;5045617;28;20415;-79
2021/07/21 05:59:45;;;;;;;12.43;9.93;;;17.90;99.90;;;;;;5030015;28;20037;-78
2021/07/21 06:02:13;;;;;;;13.10;9.10;;;18.00;99.90;;;;;;5046901;28;20040;-79
2021/07/21 06:04:40;;;;;;;15.30;9.55;;;18.00;99.90;;;;;;5013539;28;20047;-79
2021/07/21 06:07:32;;;;;;;;;;;18.10;99.90;;;;;;5033914;28;20049;-79
2021/07/21 06:10:17;;;;;;;9.93;6.97;;;18.30;99.90;;;;;;5042869;28;20276;-82
2021/07/21 06:12:58;;;;;;;11.68;7.72;;;18.40;99.90;;;;;;5028275;28;20041;-80
2021/07/21 06:15:29;;;;;;;11.07;7.57;;;18.40;99.90;;;;;;5045927;28;20043;-81
2021/07/21 06:17:57;;;;;;;11.48;8.70;;;18.50;99.90;;;;;;5047646;28;20045;-80
2021/07/21 06:20:30;;;;;;;10.32;8.13;;;18.50;99.90;;;;;;4999425;28;20045;-79
2021/07/21 06:22:57;;;;;;;12.32;7.95;;;18.60;99.90;;;;;;5043969;28;20028;-80
2021/07/21 06:25:27;;;;;;;15.32;9.80;;;18.60;99.90;;;;;;5026846;28;20021;-80
2021/07/21 06:28:09;;;;;;;11.63;7.65;;;18.60;99.90;;;;;;5045774;28;20033;-78
2021/07/21 06:30:39;;;;;;;11.27;8.27;;;18.70;99.90;;;;;;5045833;28;20401;-78
2021/07/21 06:33:10;;;;;;;10.50;7.95;;;18.70;99.90;;;;;;5028688;28;20044;-78
2021/07/21 06:35:38;;;;;;;11.25;8.13;;;18.80;99.90;;;;;;5045404;28;20037;-78
2021/07/21 06:38:04;;;;;;;12.20;8.45;;;18.80;99.90;;;;;;5046365;28;20037;-78
2021/07/21 06:40:32;;;;;;;11.15;8.65;;;18.90;99.90;;;;;;5029419;28;20381;-78
2021/07/21 06:43:04;;;;;;;9.75;8.25;;;19.00;99.90;;;;;;4996492;28;20418;-78
2021/07/21 06:45:38;;;;;;;10.70;8.10;;;19.10;99.90;;;;;;5025850;28;20080;-78
2021/07/21 06:48:13;;;;;;;11.38;8.02;;;19.10;99.80;;;;;;5025048;28;20060;-78
2021/07/21 06:50:43;;;;;;;13.20;8.90;;;19.20;99.60;;;;;;5018436;28;20034;-78
2021/07/21 06:53:10;;;;;;;13.65;9.07;;;19.30;99.50;;;;;;5027416;28;20041;-78
2021/07/21 06:55:55;;;;;;;11.55;7.90;;;19.30;99.40;;;;;;5044733;28;20037;-78
2021/07/21 06:58:23;;;;;;;11.63;9.43;;;19.40;99.30;;;;;;5012742;28;20158;-78
2021/07/21 07:00:56;;;;;;;13.35;9.38;;;19.40;99.20;;;;;;5029340;28;20052;-78
2021/07/21 07:03:40;;;;;;;12.85;9.45;;;19.50;99.20;;;;;;5045690;28;20697;-78
2021/07/21 07:06:07;;;;;;;13.05;9.32;;;19.70;99.10;;;;;;5042428;28;20049;-78
2021/07/21 07:08:52;;;;;;;15.50;9.25;;;19.80;99.00;;;;;;5030725;28;20745;-78
2021/07/21 07:11:38;;;;;;;12.70;9.18;;;19.90;98.80;;;;;;5026364;28;20041;-79
2021/07/21 07:14:05;;;;;;;13.30;9.60;;;19.90;98.60;;;;;;4996612;28;20040;-81
2021/07/21 07:16:31;;;;;;;13.40;9.48;;;20.00;98.60;;;;;;5013269;28;20060;-80
2021/07/21 07:18:58;;;;;;;14.38;9.63;;;20.10;98.60;;;;;;5046746;28;20037;-80
2021/07/21 07:21:26;;;;;;;14.38;9.68;;;20.10;98.70;;;;;;5026554;28;20532;-79
2021/07/21 07:23:53;;;;;;;12.95;8.50;;;20.20;98.50;;;;;;5045313;28;20040;-79
2021/07/21 07:26:20;;;;;;;11.75;9.63;;;20.20;98.40;;;;;;5026843;28;20495;-78
2021/07/21 07:28:46;;;;;;;13.15;9.43;;;20.20;98.30;;;;;;5046527;28;20037;-79
2021/07/21 07:31:12;;;;;;;12.90;9.68;;;20.20;98.20;;;;;;5045501;28;20523;-78
2021/07/21 07:33:39;;;;;;;11.40;9.05;;;20.30;98.10;;;;;;5045057;28;20068;-78
2021/07/21 07:36:06;;;;;;;12.95;9.32;;;20.30;98.10;;;;;;5045502;28;20046;-78
2021/07/21 07:38:32;;;;;;;14.07;9.60;;;20.40;98.00;;;;;;5029013;28;20052;-79
2021/07/21 07:41:02;;;;;;;12.25;9.50;;;20.40;97.80;;;;;;5026189;28;21448;-81
2021/07/21 07:43:29;;;;;;;12.10;9.07;;;20.50;97.60;;;;;;5045753;28;20044;-80
2021/07/21 07:45:57;;;;;;;11.75;9.88;;;20.60;97.60;;;;;;5046220;28;20056;-81
2021/07/21 07:48:27;;;;;;;11.50;9.18;;;20.60;97.40;;;;;;5045375;28;20822;-79
2021/07/21 07:50:56;;;;;;;;;;;20.60;97.30;;;;;;5046391;28;20036;-80
2021/07/21 07:53:22;;;;;;;12.20;9.10;;;20.80;97.30;;;;;;5024733;28;20390;-78
2021/07/21 07:55:49;;;;;;;13.70;10.15;;;20.80;97.10;;;;;;5044423;28;20033;-78
2021/07/21 07:58:15;;;;;;;12.65;9.18;;;20.90;96.80;;;;;;5045059;28;20045;-78
2021/07/21 08:00:43;;;;;;;13.18;9.70;;;20.90;96.90;;;;;;5027554;28;20052;-78
2021/07/21 08:03:09;;;;;;;13.07;9.43;;;21.00;96.50;;;;;;5043099;28;20045;-78
2021/07/21 08:05:38;;;;;;;13.70;9.40;;;21.10;96.40;;;;;;5045602;28;20044;-78
2021/07/21 08:08:04;;;;;;;15.25;11.02;;;21.20;96.10;;;;;;5044392;28;20068;-78
2021/07/21 08:10:31;;;;;;;12.65;9.52;;;21.20;95.80;;;;;;5045407;28;20033;-78
2021/07/21 08:12:59;;;;;;;12.82;9.20;;;21.20;95.80;;;;;;5047866;28;20033;-78
2021/07/21 08:15:25;;;;;;;13.40;9.40;;;21.30;95.90;;;;;;5044661;28;20052;-78
2021/07/21 08:17:53;;;;;;;14.10;9.77;;;21.30;95.80;;;;;;5047019;28;20041;-76
2021/07/21 08:20:20;;;;;;;15.75;10.95;;;21.20;95.60;;;;;;5030002;28;20029;-78
2021/07/21 08:22:47;;;;;;;14.15;9.27;;;21.20;95.60;;;;;;5046575;28;20404;-77
2021/07/21 08:25:16;;;;;;;13.93;7.90;;;21.20;95.50;;;;;;5013915;28;20037;-77
2021/07/21 08:27:53;;;;;;;11.85;8.68;;;21.20;95.70;;;;;;5028081;28;20055;-77
2021/07/21 08:30:20;;;;;;;12.35;9.27;;;21.20;95.80;;;;;;5025780;28;20049;-77
2021/07/21 08:32:49;;;;;;;13.35;8.82;;;21.40;95.70;;;;;;5041724;28;20076;-77
2021/07/21 08:35:17;;;;;;;12.75;8.77;;;21.70;95.60;;;;;;5009849;28;20495;-77
2021/07/21 08:37:44;;;;;;;13.10;9.20;;;22.10;95.20;;;;;;5044016;28;20539;-77
2021/07/21 08:40:13;;;;;;;11.30;9.80;;;22.40;94.60;;;;;;5044624;28;20024;-77
2021/07/21 08:42:39;;;;;;;10.70;7.78;;;22.60;93.80;;;;;;5040125;28;20045;-77
2021/07/21 08:45:08;;;;;;;11.32;8.35;;;22.70;93.60;;;;;;5024121;28;20496;-77
2021/07/21 08:47:34;;;;;;;10.65;7.32;;;22.80;93.50;;;;;;5046305;28;20051;-78
2021/07/21 08:50:03;;;;;;;8.52;6.40;;;22.90;93.00;;;;;;5047449;28;20033;-77
2021/07/21 08:52:30;;;;;;;10.15;5.47;;;23.00;92.20;;;;;;5040742;28;20037;-77
2021/07/21 08:55:00;;;;;;;7.10;5.72;;;23.20;91.40;;;;;;5039635;28;20033;-77
2021/07/21 08:57:30;;;;;;;12.00;8.32;;;23.40;91.00;;;;;;5042306;28;20395;-78
2021/07/21 08:59:59;;;;;;;9.52;7.50;;;23.60;88.90;;;;;;5026054;28;20531;-77
2021/07/21 09:02:27;;;;;;;8.52;6.93;;;23.60;88.40;;;;;;5040096;28;20033;-77
2021/07/21 09:04:54;;;;;;;7.68;6.45;;;23.80;88.90;;;;;;5006836;28;20053;-77
2021/07/21 09:07:22;;;;;;;9.13;6.50;;;23.90;88.50;;;;;;5043412;28;20044;-77
2021/07/21 09:09:50;;;;;;;9.23;6.63;;;24.10;87.90;;;;;;5029259;28;20052;-77
2021/07/21 09:12:18;;;;;;;10.18;6.70;;;24.30;87.60;;;;;;5025001;28;20052;-78
2021/07/21 09:14:44;;;;;;;6.38;4.70;;;24.50;87.40;;;;;;5045146;28;20033;-78
2021/07/21 09:17:16;;;;;;;9.27;4.80;;;24.70;85.60;;;;;;5042027;28;20107;-77
2021/07/21 09:19:45;;;;;;;8.82;4.93;;;24.80;84.90;;;;;;5042311;28;20056;-78
2021/07/21 09:22:21;;;;;;;9.35;5.65;;;24.90;83.20;;;;;;5042920;28;20033;-79
2021/07/21 09:25:17;;;;;;;9.60;6.30;;;25.00;80.20;;;;;;5029077;28;20049;-79
2021/07/21 09:27:49;;;;;;;9.07;6.07;;;25.00;79.70;;;;;;5011688;28;20044;-79
2021/07/21 09:30:22;;;;;;;8.82;7.25;;;25.10;79.40;;;;;;5043641;28;20044;-79
2021/07/21 09:33:00;;;;;;;6.40;4.63;;;25.10;78.30;;;;;;5041882;28;20052;-79
2021/07/21 09:35:30;;;;;;;9.20;6.05;;;25.20;79.20;;;;;;5025475;28;20037;-78
2021/07/21 09:38:04;;;;;;;10.00;5.93;;;25.40;79.20;;;;;;5043076;28;20029;-81
2021/07/21 09:40:31;;;;;;;9.13;6.22;;;25.60;78.30;;;;;;5040796;28;20511;-79
2021/07/21 09:42:58;;;;;;;6.55;5.85;;;25.70;77.50;;;;;;5024985;28;20036;-79
2021/07/21 09:45:24;;;;;;;7.80;4.80;;;25.80;77.00;;;;;;5050839;28;20053;-79
2021/07/21 09:47:54;;;;;;;7.20;4.80;;;25.90;76.00;;;;;;5047785;28;20048;-79
2021/07/21 09:50:29;;;;;;;6.55;5.78;;;26.00;75.80;;;;;;5042747;28;20043;-80
2021/07/21 09:53:02;;;;;;;5.95;5.22;;;26.20;74.50;;;;;;5046502;28;20021;-79
2021/07/21 09:55:29;;;;;;;9.50;6.03;;;26.30;73.70;;;;;;5043545;28;20404;-79
2021/07/21 09:58:00;;;;;;;7.63;5.63;;;26.40;72.70;;;;;;5028280;28;20060;-79
2021/07/21 10:00:32;;;;;;;7.37;5.10;;;26.50;72.00;;;;;;5029978;28;20044;-79
2021/07/21 10:03:21;;;;;;;8.35;5.15;;;26.60;71.30;;;;;;5043076;28;20036;-79
2021/07/21 10:06:11;;;;;;;7.07;4.75;;;26.80;70.50;;;;;;5014377;28;20059;-79
2021/07/21 10:08:52;;;;;;;6.95;5.18;;;27.00;70.40;;;;;;5042734;28;20036;-79
2021/07/21 10:11:26;;;;;;;6.50;4.57;;;27.40;69.20;;;;;;5027244;28;20029;-79
2021/07/21 10:13:55;;;;;;;6.63;4.28;;;27.60;67.90;;;;;;5025546;28;20037;-77
2021/07/21 10:16:50;;;;;;;6.28;4.10;;;27.90;67.00;;;;;;5043174;28;20529;-76
2021/07/21 10:19:30;;;;;;;5.38;4.50;;;28.20;66.20;;;;;;5046507;28;20040;-78
2021/07/21 10:22:00;;;;;;;6.07;4.65;;;28.50;65.00;;;;;;5046677;28;20400;-76
2021/07/21 10:24:30;;;;;;;7.05;4.05;;;28.70;63.40;;;;;;5045966;28;20503;-76
2021/07/21 10:26:57;;;;;;;7.25;5.20;;;28.80;62.60;;;;;;5048814;28;20045;-77
2021/07/21 10:29:25;;;;;;;8.63;5.43;;;28.80;60.70;;;;;;5025988;28;20041;-78
2021/07/21 10:31:53;;;;;;;7.03;4.68;;;28.70;60.20;;;;;;5013953;28;20052;-77
2021/07/21 10:34:20;;;;;;;6.45;4.70;;;28.70;59.80;;;;;;5028626;28;20045;-78
2021/07/21 10:36:48;;;;;;;7.95;5.15;;;28.80;59.50;;;;;;5044749;28;20032;-77
2021/07/21 10:39:17;;;;;;;5.78;4.97;;;28.90;57.50;;;;;;5028384;28;20056;-77
2021/07/21 10:41:46;;;;;;;8.10;4.43;;;28.90;57.80;;;;;;5046158;28;20033;-77
2021/07/21 10:44:15;;;;;;;7.15;4.57;;;29.00;58.00;;;;;;5044663;28;20087;-77
2021/07/21 10:46:44;;;;;;;6.68;5.70;;;29.00;57.40;;;;;;5045196;28;20476;-77
2021/07/21 10:49:29;;;;;;;5.85;4.30;;;28.80;54.30;;;;;;5026793;28;20048;-78
2021/07/21 10:55:24;;;;;;;4.95;4.10;;;28.80;57.20;;;;;;5044103;28;20625;-77
2021/07/21 11:00:46;;;;;;;6.72;4.20;;;29.20;55.90;;;;;;5013289;28;20431;-77
2021/07/21 11:03:33;;;;;;;4.95;4.38;;;29.10;55.60;;;;;;5027374;28;20048;-77
2021/07/21 11:06:07;;;;;;;5.43;4.35;;;29.10;55.00;;;;;;5044570;28;20041;-77
2021/07/21 11:08:47;;;;;;;6.32;4.88;;;29.20;54.70;;;;;;5028526;28;20052;-76
2021/07/21 11:11:19;;;;;;;7.88;5.38;;;29.30;55.30;;;;;;5044153;28;20048;-76
2021/07/21 11:13:54;;;;;;;;;;;29.50;55.60;;;;;;5027156;28;20049;-77
2021/07/21 11:16:38;;;;;;;5.70;5.18;;;29.90;55.00;;;;;;5028403;28;20386;-75
2021/07/21 11:19:29;;;;;;;7.35;4.85;;;30.50;53.80;;;;;;5045669;28;20039;-77
2021/07/21 11:21:58;;;;;;;5.80;4.90;;;30.90;52.50;;;;;;5042531;28;20048;-76
2021/07/21 11:24:28;;;;;;;6.63;5.65;;;31.00;50.70;;;;;;5043272;28;20040;-76
2021/07/21 11:26:55;;;;;;;6.38;4.95;;;31.20;49.90;;;;;;5041778;28;20032;-76
2021/07/21 11:29:27;;;;;;;5.43;4.40;;;31.40;49.70;;;;;;5044128;28;20033;-76
2021/07/21 11:31:54;;;;;;;6.00;4.97;;;31.50;49.70;;;;;;5040610;28;20041;-76
2021/07/21 11:34:37;;;;;;;5.55;4.78;;;31.50;49.30;;;;;;5043693;28;20036;-76
2021/07/21 11:37:07;;;;;;;5.32;4.72;;;31.50;49.10;;;;;;5027346;28;20595;-76
2021/07/21 11:39:47;;;;;;;5.68;4.68;;;31.30;49.00;;;;;;5027766;28;20040;-76
2021/07/21 11:42:23;;;;;;;7.05;4.97;;;31.10;49.60;;;;;;5026388;28;20795;-76
2021/07/21 11:45:13;;;;;;;6.43;5.18;;;31.20;49.40;;;;;;5043156;28;20033;-76
2021/07/21 11:47:43;;;;;;;5.60;4.80;;;31.30;49.10;;;;;;5043270;28;20799;-75
2021/07/21 11:50:17;;;;;;;7.25;5.32;;;31.30;48.90;;;;;;5045001;28;20043;-76
2021/07/21 11:52:44;;;;;;;5.45;4.93;;;31.50;48.90;;;;;;5042111;28;20024;-76
2021/07/21 11:55:12;;;;;;;5.82;5.32;;;31.50;48.50;;;;;;5041263;28;20041;-75
2021/07/21 11:57:39;;;;;;;5.75;5.15;;;31.30;48.30;;;;;;5026718;28;20029;-76
2021/07/21 12:00:06;;;;;;;6.28;4.78;;;31.10;48.60;;;;;;5025053;28;20060;-76
2021/07/21 12:02:37;;;;;;;;;;;30.80;48.70;;;;;;5036865;28;20053;-76
2021/07/21 12:05:07;;;;;;;6.95;4.90;;;30.40;49.40;;;;;;5038655;28;19935;-76
2021/07/21 12:07:36;;;;;;;7.00;4.50;;;30.00;49.90;;;;;;5042429;28;20490;-75
2021/07/21 12:10:17;;;;;;;6.22;5.63;;;29.70;50.60;;;;;;5043379;28;20047;-76
2021/07/21 12:12:45;;;;;;;7.95;6.47;;;29.60;50.50;;;;;;5025354;28;20041;-76
2021/07/21 12:15:16;;;;;;;5.60;4.80;;;29.70;49.90;;;;;;5042740;28;20041;-76
2021/07/21 12:17:43;;;;;;;5.20;4.70;;;29.60;50.30;;;;;;5043783;28;20043;-76
2021/07/21 12:20:15;;;;;;;5.82;4.28;;;29.90;51.10;;;;;;5043985;28;20040;-78
2021/07/21 12:22:44;;;;;;;5.82;4.57;;;30.30;51.00;;;;;;5025275;28;20048;-78
2021/07/21 12:25:16;;;;;;;6.85;5.05;;;30.60;49.90;;;;;;5043539;28;20499;-78
2021/07/21 12:27:46;;;;;;;6.40;4.97;;;30.50;49.60;;;;;;5045240;28;20037;-78
2021/07/21 12:30:17;;;;;;;7.00;4.90;;;30.50;50.20;;;;;;5044653;28;20137;-78
2021/07/21 12:32:46;;;;;;;5.57;4.93;;;30.90;49.90;;;;;;5045040;28;20045;-78
2021/07/21 12:35:15;;;;;;;6.95;5.65;;;31.40;49.70;;;;;;5044917;28;20029;-78
2021/07/21 12:37:49;;;;;;;5.45;4.50;;;32.20;46.70;;;;;;5044196;28;20044;-78
2021/07/21 12:40:19;;;;;;;5.07;4.57;;;32.90;46.40;;;;;;5026045;28;20045;-78
2021/07/21 12:42:46;;;;;;;6.60;4.78;;;33.00;46.40;;;;;;5043738;28;21223;-77
2021/07/21 12:45:15;;;;;;;5.18;4.57;;;32.80;46.50;;;;;;5043551;28;20029;-77
2021/07/21 12:47:46;;;;;;;6.03;4.63;;;32.40;46.40;;;;;;5026306;28;20041;-77
2021/07/21 12:50:16;;;;;;;7.03;4.80;;;32.10;47.40;;;;;;5044275;28;20063;-77
2021/07/21 12:52:44;;;;;;;4.90;4.38;;;32.40;46.90;;;;;;5041448;28;20059;-77
2021/07/21 12:55:18;;;;;;;5.60;4.95;;;33.20;46.70;;;;;;5039470;28;20037;-78
2021/07/21 12:57:51;;;;;;;5.75;4.97;;;34.20;44.30;;;;;;5041048;28;20073;-77
2021/07/21 13:00:23;;;;;;;5.95;5.38;;;35.00;44.10;;;;;;5019059;28;20072;-78
2021/07/21 13:03:01;;;;;;;6.25;5.65;;;35.50;42.30;;;;;;5039069;28;20488;-78
2021/07/21 13:05:47;;;;;;;5.57;4.18;;;35.70;40.60;;;;;;5042262;28;20439;-78
2021/07/21 13:08:26;;;;;;;5.18;4.68;;;36.10;40.30;;;;;;5043327;28;20037;-80
2021/07/21 13:11:10;;;;;;;5.20;4.80;;;36.60;40.30;;;;;;5044357;28;20037;-80
2021/07/21 13:13:38;;;;;;;4.95;4.45;;;37.20;40.70;;;;;;5043215;28;20048;-79
2021/07/21 13:16:11;;;;;;;7.38;5.28;;;38.00;40.00;;;;;;5043228;28;20044;-79
2021/07/21 13:18:46;;;;;;;6.45;5.85;;;38.30;37.10;;;;;;5026184;28;20044;-79
2021/07/21 13:21:26;;;;;;;8.35;5.47;;;37.60;37.10;;;;;;5042436;28;20037;-79